sensor_id;sensor_type;location;lat;lon;timestamp;temperature;humidity
65876;HTU21D;52657;51.128;5.938;2024-03-08T00:02:23;7.89;53.52
65876;HTU21D;52657;51.128;5.938;2024-03-08T00:04:49;7.85;53.49
65876;HTU21D;52657;51.128;5.938;2024-03-08T00:07:15;7.83;53.63
65876;HTU21D;52657;51.128;5.938;2024-03-08T00:09:40;7.84;53.53
65876;HTU21D;52657;51.128;5.938;2024-03-08T00:12:06;7.83;53.65
65876;HTU21D;52657;51.128;5.938;2024-03-08T00:14:32;7.84;53.63
65876;HTU21D;52657;51.128;5.938;2024-03-08T00:17:04;7.81;53.59
65876;HTU21D;52657;51.128;5.938;2024-03-08T00:19:30;7.82;53.51
65876;HTU21D;52657;51.128;5.938;2024-03-08T00:21:56;7.79;53.55
65876;HTU21D;52657;51.128;5.938;2024-03-08T00:24:21;7.73;53.76
65876;HTU21D;52657;51.128;5.938;2024-03-08T00:26:50;7.71;53.81
65876;HTU21D;52657;51.128;5.938;2024-03-08T00:29:16;7.68;53.90
65876;HTU21D;52657;51.128;5.938;2024-03-08T00:31:43;7.65;53.94
65876;HTU21D;52657;51.128;5.938;2024-03-08T00:34:08;7.63;53.92
65876;HTU21D;52657;51.128;5.938;2024-03-08T00:36:37;7.59;54.06
65876;HTU21D;52657;51.128;5.938;2024-03-08T00:39:03;7.55;54.20
65876;HTU21D;52657;51.128;5.938;2024-03-08T00:41:32;7.50;54.23
65876;HTU21D;52657;51.128;5.938;2024-03-08T00:44:05;7.46;54.36
65876;HTU21D;52657;51.128;5.938;2024-03-08T00:46:30;7.46;54.46
65876;HTU21D;52657;51.128;5.938;2024-03-08T00:48:57;7.44;54.37
65876;HTU21D;52657;51.128;5.938;2024-03-08T00:51:23;7.46;54.30
65876;HTU21D;52657;51.128;5.938;2024-03-08T00:53:48;7.45;54.35
65876;HTU21D;52657;51.128;5.938;2024-03-08T00:56:14;7.47;54.44
65876;HTU21D;52657;51.128;5.938;2024-03-08T00:58:40;7.49;54.33
65876;HTU21D;52657;51.128;5.938;2024-03-08T01:01:06;7.47;54.43
65876;HTU21D;52657;51.128;5.938;2024-03-08T01:03:31;7.48;54.28
65876;HTU21D;52657;51.128;5.938;2024-03-08T01:05:57;7.48;54.30
65876;HTU21D;52657;51.128;5.938;2024-03-08T01:08:30;7.45;54.30
65876;HTU21D;52657;51.128;5.938;2024-03-08T01:10:55;7.44;54.31
65876;HTU21D;52657;51.128;5.938;2024-03-08T01:13:21;7.44;54.29
65876;HTU21D;52657;51.128;5.938;2024-03-08T01:15:47;7.43;54.36
65876;HTU21D;52657;51.128;5.938;2024-03-08T01:18:13;7.42;54.36
65876;HTU21D;52657;51.128;5.938;2024-03-08T01:20:38;7.42;54.32
65876;HTU21D;52657;51.128;5.938;2024-03-08T01:23:05;7.37;54.45
65876;HTU21D;52657;51.128;5.938;2024-03-08T01:25:33;7.32;54.47
65876;HTU21D;52657;51.128;5.938;2024-03-08T01:28:02;7.30;54.46
65876;HTU21D;52657;51.128;5.938;2024-03-08T01:30:28;7.28;54.63
65876;HTU21D;52657;51.128;5.938;2024-03-08T01:32:54;7.26;54.64
65876;HTU21D;52657;51.128;5.938;2024-03-08T01:35:19;7.20;54.75
65876;HTU21D;52657;51.128;5.938;2024-03-08T01:37:48;7.10;55.00
65876;HTU21D;52657;51.128;5.938;2024-03-08T01:40:15;7.05;55.26
65876;HTU21D;52657;51.128;5.938;2024-03-08T01:42:42;6.98;55.44
65876;HTU21D;52657;51.128;5.938;2024-03-08T01:45:08;6.91;55.59
65876;HTU21D;52657;51.128;5.938;2024-03-08T01:47:35;6.85;55.78
65876;HTU21D;52657;51.128;5.938;2024-03-08T01:50:02;6.79;55.94
65876;HTU21D;52657;51.128;5.938;2024-03-08T01:52:30;6.76;56.01
65876;HTU21D;52657;51.128;5.938;2024-03-08T01:55:02;6.71;56.28
65876;HTU21D;52657;51.128;5.938;2024-03-08T01:57:33;6.72;56.25
65876;HTU21D;52657;51.128;5.938;2024-03-08T02:00:01;6.69;56.30
65876;HTU21D;52657;51.128;5.938;2024-03-08T02:02:33;6.72;56.38
65876;HTU21D;52657;51.128;5.938;2024-03-08T02:05:00;6.72;56.29
65876;HTU21D;52657;51.128;5.938;2024-03-08T02:07:29;6.69;56.31
65876;HTU21D;52657;51.128;5.938;2024-03-08T02:09:55;6.69;56.38
65876;HTU21D;52657;51.128;5.938;2024-03-08T02:12:21;6.65;56.50
65876;HTU21D;52657;51.128;5.938;2024-03-08T02:14:47;6.64;56.59
65876;HTU21D;52657;51.128;5.938;2024-03-08T02:17:13;6.61;56.55
65876;HTU21D;52657;51.128;5.938;2024-03-08T02:19:38;6.53;56.87
65876;HTU21D;52657;51.128;5.938;2024-03-08T02:22:06;6.48;56.93
65876;HTU21D;52657;51.128;5.938;2024-03-08T02:24:32;6.44;57.03
65876;HTU21D;52657;51.128;5.938;2024-03-08T02:27:02;6.45;57.05
65876;HTU21D;52657;51.128;5.938;2024-03-08T02:29:28;6.46;57.00
65876;HTU21D;52657;51.128;5.938;2024-03-08T02:31:54;6.45;56.93
65876;HTU21D;52657;51.128;5.938;2024-03-08T02:34:23;6.42;57.03
65876;HTU21D;52657;51.128;5.938;2024-03-08T02:36:49;6.41;57.01
65876;HTU21D;52657;51.128;5.938;2024-03-08T02:39:14;6.39;57.12
65876;HTU21D;52657;51.128;5.938;2024-03-08T02:41:41;6.38;57.20
65876;HTU21D;52657;51.128;5.938;2024-03-08T02:44:08;6.36;57.22
65876;HTU21D;52657;51.128;5.938;2024-03-08T02:46:33;6.31;57.33
65876;HTU21D;52657;51.128;5.938;2024-03-08T02:49:04;6.33;57.33
65876;HTU21D;52657;51.128;5.938;2024-03-08T02:51:30;6.31;57.29
65876;HTU21D;52657;51.128;5.938;2024-03-08T02:53:56;6.29;57.39
65876;HTU21D;52657;51.128;5.938;2024-03-08T02:56:23;6.28;57.45
65876;HTU21D;52657;51.128;5.938;2024-03-08T02:58:48;6.28;57.42
65876;HTU21D;52657;51.128;5.938;2024-03-08T03:01:15;6.25;57.43
65876;HTU21D;52657;51.128;5.938;2024-03-08T03:03:41;6.21;57.51
65876;HTU21D;52657;51.128;5.938;2024-03-08T03:06:10;6.20;57.64
65876;HTU21D;52657;51.128;5.938;2024-03-08T03:08:37;6.14;57.76
65876;HTU21D;52657;51.128;5.938;2024-03-08T03:11:04;6.13;57.84
65876;HTU21D;52657;51.128;5.938;2024-03-08T03:13:29;6.10;57.96
65876;HTU21D;52657;51.128;5.938;2024-03-08T03:15:55;6.07;58.09
65876;HTU21D;52657;51.128;5.938;2024-03-08T03:18:23;6.06;58.13
65876;HTU21D;52657;51.128;5.938;2024-03-08T03:20:49;6.06;58.12
65876;HTU21D;52657;51.128;5.938;2024-03-08T03:23:15;6.05;58.10
65876;HTU21D;52657;51.128;5.938;2024-03-08T03:25:46;6.05;58.13
65876;HTU21D;52657;51.128;5.938;2024-03-08T03:28:12;6.02;58.30
65876;HTU21D;52657;51.128;5.938;2024-03-08T03:30:40;6.01;58.29
65876;HTU21D;52657;51.128;5.938;2024-03-08T03:33:06;6.00;58.32
65876;HTU21D;52657;51.128;5.938;2024-03-08T03:35:35;5.98;58.38
65876;HTU21D;52657;51.128;5.938;2024-03-08T03:38:04;5.94;58.43
65876;HTU21D;52657;51.128;5.938;2024-03-08T03:40:34;5.95;58.54
65876;HTU21D;52657;51.128;5.938;2024-03-08T03:43:01;5.93;58.54
65876;HTU21D;52657;51.128;5.938;2024-03-08T03:45:30;5.92;58.57
65876;HTU21D;52657;51.128;5.938;2024-03-08T03:48:02;5.93;58.59
65876;HTU21D;52657;51.128;5.938;2024-03-08T03:50:28;5.91;58.56
65876;HTU21D;52657;51.128;5.938;2024-03-08T03:52:54;5.91;58.54
65876;HTU21D;52657;51.128;5.938;2024-03-08T03:55:20;5.89;58.64
65876;HTU21D;52657;51.128;5.938;2024-03-08T03:57:47;5.87;58.67
65876;HTU21D;52657;51.128;5.938;2024-03-08T04:00:13;5.86;58.64
65876;HTU21D;52657;51.128;5.938;2024-03-08T04:02:40;5.85;58.70
65876;HTU21D;52657;51.128;5.938;2024-03-08T04:05:10;5.81;58.82
65876;HTU21D;52657;51.128;5.938;2024-03-08T04:07:39;5.81;58.77
65876;HTU21D;52657;51.128;5.938;2024-03-08T04:10:06;5.77;58.94
65876;HTU21D;52657;51.128;5.938;2024-03-08T04:12:35;5.79;58.95
65876;HTU21D;52657;51.128;5.938;2024-03-08T04:15:04;5.77;59.00
65876;HTU21D;52657;51.128;5.938;2024-03-08T04:17:33;5.77;58.99
65876;HTU21D;52657;51.128;5.938;2024-03-08T04:20:03;5.80;59.02
65876;HTU21D;52657;51.128;5.938;2024-03-08T04:22:35;5.79;58.95
65876;HTU21D;52657;51.128;5.938;2024-03-08T04:25:04;5.75;58.96
65876;HTU21D;52657;51.128;5.938;2024-03-08T04:27:33;5.71;59.19
65876;HTU21D;52657;51.128;5.938;2024-03-08T04:30:00;5.67;59.34
65876;HTU21D;52657;51.128;5.938;2024-03-08T04:32:26;5.66;59.31
65876;HTU21D;52657;51.128;5.938;2024-03-08T04:34:51;5.68;59.28
65876;HTU21D;52657;51.128;5.938;2024-03-08T04:37:17;5.65;59.37
65876;HTU21D;52657;51.128;5.938;2024-03-08T04:39:50;5.65;59.38
65876;HTU21D;52657;51.128;5.938;2024-03-08T04:42:16;5.63;59.29
65876;HTU21D;52657;51.128;5.938;2024-03-08T04:44:43;5.65;59.30
65876;HTU21D;52657;51.128;5.938;2024-03-08T04:47:11;5.64;59.35
65876;HTU21D;52657;51.128;5.938;2024-03-08T04:49:37;5.63;59.37
65876;HTU21D;52657;51.128;5.938;2024-03-08T04:52:03;5.63;59.36
65876;HTU21D;52657;51.128;5.938;2024-03-08T04:54:32;5.60;59.46
65876;HTU21D;52657;51.128;5.938;2024-03-08T04:57:02;5.56;59.56
65876;HTU21D;52657;51.128;5.938;2024-03-08T04:59:30;5.55;59.58
65876;HTU21D;52657;51.128;5.938;2024-03-08T05:01:56;5.51;59.67
65876;HTU21D;52657;51.128;5.938;2024-03-08T05:04:25;5.50;59.74
65876;HTU21D;52657;51.128;5.938;2024-03-08T05:06:51;5.45;59.86
65876;HTU21D;52657;51.128;5.938;2024-03-08T05:09:16;5.48;59.77
65876;HTU21D;52657;51.128;5.938;2024-03-08T05:11:45;5.41;59.93
65876;HTU21D;52657;51.128;5.938;2024-03-08T05:14:11;5.40;60.05
65876;HTU21D;52657;51.128;5.938;2024-03-08T05:16:45;5.38;60.08
65876;HTU21D;52657;51.128;5.938;2024-03-08T05:19:18;5.37;60.14
65876;HTU21D;52657;51.128;5.938;2024-03-08T05:21:45;5.36;60.09
65876;HTU21D;52657;51.128;5.938;2024-03-08T05:24:11;5.37;60.12
65876;HTU21D;52657;51.128;5.938;2024-03-08T05:26:37;5.35;60.11
65876;HTU21D;52657;51.128;5.938;2024-03-08T05:29:03;5.36;60.23
65876;HTU21D;52657;51.128;5.938;2024-03-08T05:31:43;5.35;60.51
65876;HTU21D;52657;51.128;5.938;2024-03-08T05:34:11;5.36;60.62
65876;HTU21D;52657;51.128;5.938;2024-03-08T05:36:40;5.38;60.85
65876;HTU21D;52657;51.128;5.938;2024-03-08T05:39:08;5.37;61.11
65876;HTU21D;52657;51.128;5.938;2024-03-08T05:41:38;5.38;61.12
65876;HTU21D;52657;51.128;5.938;2024-03-08T05:44:04;5.37;60.86
65876;HTU21D;52657;51.128;5.938;2024-03-08T05:46:31;5.36;61.22
65876;HTU21D;52657;51.128;5.938;2024-03-08T05:48:56;5.34;61.24
65876;HTU21D;52657;51.128;5.938;2024-03-08T05:51:30;5.32;61.41
65876;HTU21D;52657;51.128;5.938;2024-03-08T05:53:56;5.33;61.34
65876;HTU21D;52657;51.128;5.938;2024-03-08T05:56:25;5.32;61.28
65876;HTU21D;52657;51.128;5.938;2024-03-08T05:58:56;5.34;60.88
65876;HTU21D;52657;51.128;5.938;2024-03-08T06:01:28;5.33;60.67
65876;HTU21D;52657;51.128;5.938;2024-03-08T06:03:54;5.28;60.81
65876;HTU21D;52657;51.128;5.938;2024-03-08T06:06:24;5.34;60.88
65876;HTU21D;52657;51.128;5.938;2024-03-08T06:08:50;5.31;61.09
65876;HTU21D;52657;51.128;5.938;2024-03-08T06:11:18;5.26;61.34
65876;HTU21D;52657;51.128;5.938;2024-03-08T06:13:44;5.26;61.38
65876;HTU21D;52657;51.128;5.938;2024-03-08T06:16:10;5.26;61.64
65876;HTU21D;52657;51.128;5.938;2024-03-08T06:18:37;5.26;61.62
65876;HTU21D;52657;51.128;5.938;2024-03-08T06:21:06;5.31;61.94
65876;HTU21D;52657;51.128;5.938;2024-03-08T06:23:35;5.27;61.67
65876;HTU21D;52657;51.128;5.938;2024-03-08T06:26:07;5.27;61.79
65876;HTU21D;52657;51.128;5.938;2024-03-08T06:28:33;5.28;61.79
65876;HTU21D;52657;51.128;5.938;2024-03-08T06:31:01;5.32;62.13
65876;HTU21D;52657;51.128;5.938;2024-03-08T06:33:37;5.32;62.29
65876;HTU21D;52657;51.128;5.938;2024-03-08T06:36:02;5.32;62.43
65876;HTU21D;52657;51.128;5.938;2024-03-08T06:38:29;5.32;61.96
65876;HTU21D;52657;51.128;5.938;2024-03-08T06:40:56;5.31;61.80
65876;HTU21D;52657;51.128;5.938;2024-03-08T06:43:21;5.33;61.77
65876;HTU21D;52657;51.128;5.938;2024-03-08T06:46:00;5.36;61.94
65876;HTU21D;52657;51.128;5.938;2024-03-08T06:48:29;5.39;62.17
65876;HTU21D;52657;51.128;5.938;2024-03-08T06:50:55;5.41;62.34
65876;HTU21D;52657;51.128;5.938;2024-03-08T06:53:21;5.43;62.29
65876;HTU21D;52657;51.128;5.938;2024-03-08T06:55:50;5.42;62.08
65876;HTU21D;52657;51.128;5.938;2024-03-08T06:58:16;5.47;61.66
65876;HTU21D;52657;51.128;5.938;2024-03-08T07:00:42;5.47;61.41
65876;HTU21D;52657;51.128;5.938;2024-03-08T07:03:09;5.52;61.47
65876;HTU21D;52657;51.128;5.938;2024-03-08T07:05:37;5.54;61.79
65876;HTU21D;52657;51.128;5.938;2024-03-08T07:08:03;5.60;61.83
65876;HTU21D;52657;51.128;5.938;2024-03-08T07:10:29;5.70;61.73
65876;HTU21D;52657;51.128;5.938;2024-03-08T07:12:55;5.68;61.46
65876;HTU21D;52657;51.128;5.938;2024-03-08T07:15:21;5.76;61.16
65876;HTU21D;52657;51.128;5.938;2024-03-08T07:17:49;5.83;61.03
65876;HTU21D;52657;51.128;5.938;2024-03-08T07:20:17;5.87;60.81
65876;HTU21D;52657;51.128;5.938;2024-03-08T07:22:48;5.98;60.55
65876;HTU21D;52657;51.128;5.938;2024-03-08T07:25:14;6.02;60.50
65876;HTU21D;52657;51.128;5.938;2024-03-08T07:27:53;6.13;60.60
65876;HTU21D;52657;51.128;5.938;2024-03-08T07:30:25;6.20;59.98
65876;HTU21D;52657;51.128;5.938;2024-03-08T07:33:10;6.26;59.93
65876;HTU21D;52657;51.128;5.938;2024-03-08T07:35:39;6.34;59.83
65876;HTU21D;52657;51.128;5.938;2024-03-08T07:38:07;6.44;59.28
65876;HTU21D;52657;51.128;5.938;2024-03-08T07:40:38;6.51;59.39
65876;HTU21D;52657;51.128;5.938;2024-03-08T07:43:10;6.59;59.25
65876;HTU21D;52657;51.128;5.938;2024-03-08T07:45:39;6.87;58.92
65876;HTU21D;52657;51.128;5.938;2024-03-08T07:48:06;7.43;58.79
65876;HTU21D;52657;51.128;5.938;2024-03-08T07:50:40;8.22;57.81
65876;HTU21D;52657;51.128;5.938;2024-03-08T07:53:06;9.11;54.95
65876;HTU21D;52657;51.128;5.938;2024-03-08T07:55:35;9.77;52.86
65876;HTU21D;52657;51.128;5.938;2024-03-08T07:58:04;10.33;50.93
65876;HTU21D;52657;51.128;5.938;2024-03-08T08:00:30;10.84;49.82
65876;HTU21D;52657;51.128;5.938;2024-03-08T08:03:03;11.31;47.79
65876;HTU21D;52657;51.128;5.938;2024-03-08T08:05:29;11.57;46.57
65876;HTU21D;52657;51.128;5.938;2024-03-08T08:07:55;11.70;46.59
65876;HTU21D;52657;51.128;5.938;2024-03-08T08:10:21;11.96;45.96
65876;HTU21D;52657;51.128;5.938;2024-03-08T08:12:48;12.25;45.19
65876;HTU21D;52657;51.128;5.938;2024-03-08T08:15:14;12.53;44.57
65876;HTU21D;52657;51.128;5.938;2024-03-08T08:17:47;12.82;43.91
65876;HTU21D;52657;51.128;5.938;2024-03-08T08:20:13;12.92;42.92
65876;HTU21D;52657;51.128;5.938;2024-03-08T08:22:42;13.10;42.52
65876;HTU21D;52657;51.128;5.938;2024-03-08T08:25:16;13.25;42.30
65876;HTU21D;52657;51.128;5.938;2024-03-08T08:27:46;13.43;41.95
65876;HTU21D;52657;51.128;5.938;2024-03-08T08:30:12;13.67;41.10
65876;HTU21D;52657;51.128;5.938;2024-03-08T08:32:39;13.77;40.61
65876;HTU21D;52657;51.128;5.938;2024-03-08T08:35:06;13.88;40.01
65876;HTU21D;52657;51.128;5.938;2024-03-08T08:37:33;13.68;39.95
65876;HTU21D;52657;51.128;5.938;2024-03-08T08:40:05;13.39;40.22
65876;HTU21D;52657;51.128;5.938;2024-03-08T08:42:40;13.44;40.40
65876;HTU21D;52657;51.128;5.938;2024-03-08T08:45:07;13.67;40.80
65876;HTU21D;52657;51.128;5.938;2024-03-08T08:47:39;14.01;39.89
65876;HTU21D;52657;51.128;5.938;2024-03-08T08:50:08;14.12;39.23
65876;HTU21D;52657;51.128;5.938;2024-03-08T08:52:40;14.28;39.59
65876;HTU21D;52657;51.128;5.938;2024-03-08T08:55:06;14.37;38.72
65876;HTU21D;52657;51.128;5.938;2024-03-08T08:57:33;14.25;38.68
65876;HTU21D;52657;51.128;5.938;2024-03-08T09:00:05;14.25;38.72
65876;HTU21D;52657;51.128;5.938;2024-03-08T09:02:33;14.01;38.31
65876;HTU21D;52657;51.128;5.938;2024-03-08T09:05:00;14.01;39.09
65876;HTU21D;52657;51.128;5.938;2024-03-08T09:07:27;13.97;38.69
65876;HTU21D;52657;51.128;5.938;2024-03-08T09:09:54;13.80;38.84
65876;HTU21D;52657;51.128;5.938;2024-03-08T09:12:25;13.82;39.14
65876;HTU21D;52657;51.128;5.938;2024-03-08T09:14:51;14.00;39.07
65876;HTU21D;52657;51.128;5.938;2024-03-08T09:17:20;14.00;38.53
65876;HTU21D;52657;51.128;5.938;2024-03-08T09:19:46;13.90;39.05
65876;HTU21D;52657;51.128;5.938;2024-03-08T09:22:13;14.00;38.97
65876;HTU21D;52657;51.128;5.938;2024-03-08T09:24:39;14.06;39.06
65876;HTU21D;52657;51.128;5.938;2024-03-08T09:27:05;14.19;38.75
65876;HTU21D;52657;51.128;5.938;2024-03-08T09:29:33;14.25;38.70
65876;HTU21D;52657;51.128;5.938;2024-03-08T09:32:02;14.28;38.27
65876;HTU21D;52657;51.128;5.938;2024-03-08T09:34:28;14.28;38.37
65876;HTU21D;52657;51.128;5.938;2024-03-08T09:36:55;14.35;37.64
65876;HTU21D;52657;51.128;5.938;2024-03-08T09:39:22;14.19;37.79
65876;HTU21D;52657;51.128;5.938;2024-03-08T09:41:48;14.08;38.37
65876;HTU21D;52657;51.128;5.938;2024-03-08T09:44:15;13.85;38.43
65876;HTU21D;52657;51.128;5.938;2024-03-08T09:46:45;13.89;38.70
65876;HTU21D;52657;51.128;5.938;2024-03-08T09:49:13;13.90;38.72
65876;HTU21D;52657;51.128;5.938;2024-03-08T09:51:39;13.77;38.97
65876;HTU21D;52657;51.128;5.938;2024-03-08T09:54:08;13.80;39.14
65876;HTU21D;52657;51.128;5.938;2024-03-08T09:56:36;13.92;39.10
65876;HTU21D;52657;51.128;5.938;2024-03-08T09:59:02;13.94;38.94
65876;HTU21D;52657;51.128;5.938;2024-03-08T10:01:37;14.10;38.69
65876;HTU21D;52657;51.128;5.938;2024-03-08T10:04:06;14.20;38.24
65876;HTU21D;52657;51.128;5.938;2024-03-08T10:06:32;14.15;37.96
65876;HTU21D;52657;51.128;5.938;2024-03-08T10:08:59;13.92;37.98
65876;HTU21D;52657;51.128;5.938;2024-03-08T10:11:26;13.91;38.80
65876;HTU21D;52657;51.128;5.938;2024-03-08T10:13:52;13.99;38.09
65876;HTU21D;52657;51.128;5.938;2024-03-08T10:16:18;13.92;38.37
65876;HTU21D;52657;51.128;5.938;2024-03-08T10:18:47;13.66;38.66
65876;HTU21D;52657;51.128;5.938;2024-03-08T10:21:13;13.50;38.98
65876;HTU21D;52657;51.128;5.938;2024-03-08T10:23:41;13.56;39.53
65876;HTU21D;52657;51.128;5.938;2024-03-08T10:26:16;13.71;39.40
65876;HTU21D;52657;51.128;5.938;2024-03-08T10:28:44;13.59;38.38
65876;HTU21D;52657;51.128;5.938;2024-03-08T10:31:10;13.48;38.99
65876;HTU21D;52657;51.128;5.938;2024-03-08T10:33:37;13.50;39.28
65876;HTU21D;52657;51.128;5.938;2024-03-08T10:36:07;13.51;39.53
65876;HTU21D;52657;51.128;5.938;2024-03-08T10:38:37;13.35;39.20
65876;HTU21D;52657;51.128;5.938;2024-03-08T10:41:06;13.06;39.60
65876;HTU21D;52657;51.128;5.938;2024-03-08T10:44:01;12.87;40.29
65876;HTU21D;52657;51.128;5.938;2024-03-08T10:47:02;12.72;41.02
65876;HTU21D;52657;51.128;5.938;2024-03-08T10:49:37;12.38;41.22
65876;HTU21D;52657;51.128;5.938;2024-03-08T10:52:09;12.20;41.68
65876;HTU21D;52657;51.128;5.938;2024-03-08T10:54:38;12.05;42.02
65876;HTU21D;52657;51.128;5.938;2024-03-08T10:57:05;11.96;42.25
65876;HTU21D;52657;51.128;5.938;2024-03-08T10:59:34;11.87;42.67
65876;HTU21D;52657;51.128;5.938;2024-03-08T11:02:01;11.87;42.40
65876;HTU21D;52657;51.128;5.938;2024-03-08T11:04:27;11.85;42.90
65876;HTU21D;52657;51.128;5.938;2024-03-08T11:07:06;11.86;42.42
65876;HTU21D;52657;51.128;5.938;2024-03-08T11:09:36;11.92;42.81
65876;HTU21D;52657;51.128;5.938;2024-03-08T11:14:49;11.90;42.55
65876;HTU21D;52657;51.128;5.938;2024-03-08T11:17:39;11.86;42.71
65876;HTU21D;52657;51.128;5.938;2024-03-08T11:22:54;12.07;42.90
65876;HTU21D;52657;51.128;5.938;2024-03-08T11:25:40;12.08;42.45
65876;HTU21D;52657;51.128;5.938;2024-03-08T11:28:17;12.00;42.13
65876;HTU21D;52657;51.128;5.938;2024-03-08T11:30:46;11.93;41.94
65876;HTU21D;52657;51.128;5.938;2024-03-08T11:33:16;12.02;42.48
65876;HTU21D;52657;51.128;5.938;2024-03-08T11:35:43;12.03;42.54
65876;HTU21D;52657;51.128;5.938;2024-03-08T11:38:11;12.07;42.15
65876;HTU21D;52657;51.128;5.938;2024-03-08T11:40:39;12.07;42.57
65876;HTU21D;52657;51.128;5.938;2024-03-08T11:43:05;12.19;42.72
65876;HTU21D;52657;51.128;5.938;2024-03-08T11:45:35;12.35;42.58
65876;HTU21D;52657;51.128;5.938;2024-03-08T11:48:06;12.38;42.27
65876;HTU21D;52657;51.128;5.938;2024-03-08T11:50:32;12.45;41.39
65876;HTU21D;52657;51.128;5.938;2024-03-08T11:53:05;12.45;41.77
65876;HTU21D;52657;51.128;5.938;2024-03-08T11:55:34;12.49;41.36
65876;HTU21D;52657;51.128;5.938;2024-03-08T11:58:03;12.52;41.20
65876;HTU21D;52657;51.128;5.938;2024-03-08T12:00:29;12.42;40.07
65876;HTU21D;52657;51.128;5.938;2024-03-08T12:03:06;12.41;40.81
65876;HTU21D;52657;51.128;5.938;2024-03-08T12:05:36;12.45;41.14
65876;HTU21D;52657;51.128;5.938;2024-03-08T12:08:12;12.56;41.11
65876;HTU21D;52657;51.128;5.938;2024-03-08T12:10:47;12.62;40.33
65876;HTU21D;52657;51.128;5.938;2024-03-08T12:13:12;12.57;40.05
65876;HTU21D;52657;51.128;5.938;2024-03-08T12:15:44;12.62;40.13
65876;HTU21D;52657;51.128;5.938;2024-03-08T12:18:13;12.63;40.47
65876;HTU21D;52657;51.128;5.938;2024-03-08T12:20:39;12.64;40.53
65876;HTU21D;52657;51.128;5.938;2024-03-08T12:23:19;12.69;40.49
65876;HTU21D;52657;51.128;5.938;2024-03-08T12:25:45;12.72;40.46
65876;HTU21D;52657;51.128;5.938;2024-03-08T12:28:13;12.74;40.49
65876;HTU21D;52657;51.128;5.938;2024-03-08T12:30:54;12.80;40.65
65876;HTU21D;52657;51.128;5.938;2024-03-08T12:33:25;12.84;40.57
65876;HTU21D;52657;51.128;5.938;2024-03-08T12:35:55;12.92;40.38
65876;HTU21D;52657;51.128;5.938;2024-03-08T12:38:27;13.05;40.30
65876;HTU21D;52657;51.128;5.938;2024-03-08T12:41:00;13.10;39.86
65876;HTU21D;52657;51.128;5.938;2024-03-08T12:43:29;13.10;40.05
65876;HTU21D;52657;51.128;5.938;2024-03-08T12:46:00;13.11;39.54
65876;HTU21D;52657;51.128;5.938;2024-03-08T12:48:28;13.04;39.59
65876;HTU21D;52657;51.128;5.938;2024-03-08T12:51:09;13.08;40.03
65876;HTU21D;52657;51.128;5.938;2024-03-08T12:53:35;13.10;39.23
65876;HTU21D;52657;51.128;5.938;2024-03-08T12:56:06;13.11;39.94
65876;HTU21D;52657;51.128;5.938;2024-03-08T12:58:39;13.17;40.42
65876;HTU21D;52657;51.128;5.938;2024-03-08T13:01:06;13.23;40.27
65876;HTU21D;52657;51.128;5.938;2024-03-08T13:03:35;13.26;40.04
65876;HTU21D;52657;51.128;5.938;2024-03-08T13:06:05;13.21;40.03
65876;HTU21D;52657;51.128;5.938;2024-03-08T13:08:39;13.22;40.21
65876;HTU21D;52657;51.128;5.938;2024-03-08T13:11:12;13.30;40.23
65876;HTU21D;52657;51.128;5.938;2024-03-08T13:13:40;13.30;39.98
65876;HTU21D;52657;51.128;5.938;2024-03-08T13:16:06;13.37;40.37
65876;HTU21D;52657;51.128;5.938;2024-03-08T13:18:39;13.49;39.37
65876;HTU21D;52657;51.128;5.938;2024-03-08T13:21:07;13.34;39.36
65876;HTU21D;52657;51.128;5.938;2024-03-08T13:23:46;13.35;39.65
65876;HTU21D;52657;51.128;5.938;2024-03-08T13:26:23;13.31;39.61
65876;HTU21D;52657;51.128;5.938;2024-03-08T13:29:04;13.29;39.49
65876;HTU21D;52657;51.128;5.938;2024-03-08T13:31:41;13.24;39.53
65876;HTU21D;52657;51.128;5.938;2024-03-08T13:34:07;13.24;39.68
65876;HTU21D;52657;51.128;5.938;2024-03-08T13:36:39;13.31;39.85
65876;HTU21D;52657;51.128;5.938;2024-03-08T13:39:09;13.30;39.50
65876;HTU21D;52657;51.128;5.938;2024-03-08T13:41:43;13.39;39.75
65876;HTU21D;52657;51.128;5.938;2024-03-08T13:44:12;13.46;39.40
65876;HTU21D;52657;51.128;5.938;2024-03-08T13:46:41;13.56;39.26
65876;HTU21D;52657;51.128;5.938;2024-03-08T13:49:12;13.61;39.12
65876;HTU21D;52657;51.128;5.938;2024-03-08T13:51:49;13.59;39.57
65876;HTU21D;52657;51.128;5.938;2024-03-08T13:54:17;13.62;39.47
65876;HTU21D;52657;51.128;5.938;2024-03-08T13:57:04;13.63;39.42
65876;HTU21D;52657;51.128;5.938;2024-03-08T13:59:48;13.62;39.62
65876;HTU21D;52657;51.128;5.938;2024-03-08T14:02:25;13.59;39.73
65876;HTU21D;52657;51.128;5.938;2024-03-08T14:04:54;13.59;39.65
65876;HTU21D;52657;51.128;5.938;2024-03-08T14:07:30;13.58;39.88
65876;HTU21D;52657;51.128;5.938;2024-03-08T14:09:56;13.61;40.17
65876;HTU21D;52657;51.128;5.938;2024-03-08T14:12:24;13.59;39.60
65876;HTU21D;52657;51.128;5.938;2024-03-08T14:14:55;13.63;39.65
65876;HTU21D;52657;51.128;5.938;2024-03-08T14:17:21;13.63;39.61
65876;HTU21D;52657;51.128;5.938;2024-03-08T14:19:50;13.59;39.82
65876;HTU21D;52657;51.128;5.938;2024-03-08T14:22:16;13.65;39.77
65876;HTU21D;52657;51.128;5.938;2024-03-08T14:24:51;13.66;39.33
65876;HTU21D;52657;51.128;5.938;2024-03-08T14:27:17;13.63;39.23
65876;HTU21D;52657;51.128;5.938;2024-03-08T14:29:44;13.61;38.92
65876;HTU21D;52657;51.128;5.938;2024-03-08T14:32:12;13.66;38.95
65876;HTU21D;52657;51.128;5.938;2024-03-08T14:34:42;13.67;39.01
65876;HTU21D;52657;51.128;5.938;2024-03-08T14:37:16;13.64;39.06
65876;HTU21D;52657;51.128;5.938;2024-03-08T14:39:45;13.55;38.49
65876;HTU21D;52657;51.128;5.938;2024-03-08T14:42:17;13.63;38.56
65876;HTU21D;52657;51.128;5.938;2024-03-08T14:44:45;13.66;38.69
65876;HTU21D;52657;51.128;5.938;2024-03-08T14:47:30;13.71;38.66
65876;HTU21D;52657;51.128;5.938;2024-03-08T14:50:01;13.73;38.82
65876;HTU21D;52657;51.128;5.938;2024-03-08T14:52:34;13.76;38.27
65876;HTU21D;52657;51.128;5.938;2024-03-08T14:55:03;13.75;38.13
65876;HTU21D;52657;51.128;5.938;2024-03-08T15:03:46;13.69;38.22
65876;HTU21D;52657;51.128;5.938;2024-03-08T15:06:52;13.71;38.19
65876;HTU21D;52657;51.128;5.938;2024-03-08T15:09:31;13.78;38.43
65876;HTU21D;52657;51.128;5.938;2024-03-08T15:12:20;13.82;38.75
65876;HTU21D;52657;51.128;5.938;2024-03-08T15:22:09;13.82;38.04
65876;HTU21D;52657;51.128;5.938;2024-03-08T15:25:30;13.84;37.87
65876;HTU21D;52657;51.128;5.938;2024-03-08T15:28:45;13.86;37.97
65876;HTU21D;52657;51.128;5.938;2024-03-08T15:35:37;13.83;38.25
65876;HTU21D;52657;51.128;5.938;2024-03-08T15:38:22;13.80;38.28
65876;HTU21D;52657;51.128;5.938;2024-03-08T15:40:51;13.84;38.50
65876;HTU21D;52657;51.128;5.938;2024-03-08T15:44:08;13.85;38.21
65876;HTU21D;52657;51.128;5.938;2024-03-08T15:47:14;13.80;38.14
65876;HTU21D;52657;51.128;5.938;2024-03-08T15:53:12;13.70;38.32
65876;HTU21D;52657;51.128;5.938;2024-03-08T15:56:09;13.71;38.17
65876;HTU21D;52657;51.128;5.938;2024-03-08T15:58:58;13.75;38.56
65876;HTU21D;52657;51.128;5.938;2024-03-08T16:02:24;13.74;38.50
65876;HTU21D;52657;51.128;5.938;2024-03-08T16:05:05;13.66;38.40
65876;HTU21D;52657;51.128;5.938;2024-03-08T16:11:18;13.69;38.62